createdAt,value
2019-06-15T00:02:04.884Z,19.40
2019-06-15T00:12:06.174Z,19.30
2019-06-15T00:22:07.483Z,19.30
2019-06-15T00:32:08.766Z,19.20
2019-06-15T00:42:10.053Z,19.10
2019-06-15T00:52:11.343Z,19.00
2019-06-15T01:02:12.596Z,18.90
2019-06-15T01:12:14.651Z,18.70
2019-06-15T01:22:15.948Z,18.70
2019-06-15T01:32:17.218Z,18.60
2019-06-15T01:42:18.613Z,18.60
2019-06-15T01:52:20.672Z,18.50
2019-06-15T02:02:21.970Z,18.50
2019-06-15T02:12:23.276Z,18.40
2019-06-15T02:22:24.570Z,18.20
2019-06-15T02:32:25.854Z,18.20
2019-06-15T02:42:27.158Z,18.20
2019-06-15T02:52:28.453Z,18.00
2019-06-15T03:02:29.783Z,17.90
2019-06-15T03:12:31.050Z,17.90
2019-06-15T03:22:32.314Z,18.10
2019-06-15T03:32:33.559Z,18.10
2019-06-15T03:42:38.866Z,18.20
2019-06-15T03:52:40.140Z,18.30
2019-06-15T04:02:41.426Z,18.60
2019-06-15T04:12:42.728Z,19.00
2019-06-15T04:22:44.067Z,19.40
2019-06-15T04:32:45.352Z,19.70
2019-06-15T04:42:46.643Z,20.20
2019-06-15T05:13:07.727Z,20.70
2019-06-15T05:53:34.226Z,22.00
2019-06-15T06:03:38.811Z,22.00
2019-06-15T06:13:40.161Z,22.80
2019-06-15T06:23:42.404Z,23.40
2019-06-15T06:33:44.450Z,23.70
2019-06-15T06:43:45.733Z,23.70
2019-06-15T06:53:47.069Z,24.60
2019-06-15T07:03:48.516Z,24.80
2019-06-15T07:13:49.922Z,24.10
2019-06-15T07:23:51.222Z,23.90
2019-06-15T07:33:52.494Z,24.30
2019-06-15T07:43:54.562Z,26.40
2019-06-15T07:53:55.853Z,26.30
2019-06-15T08:03:57.402Z,28.30
2019-06-15T08:14:04.237Z,31.80
2019-06-15T08:24:06.287Z,33.50
2019-06-15T08:34:07.611Z,33.40
2019-06-15T08:44:09.136Z,33.60
2019-06-15T09:14:27.781Z,30.70
2019-06-15T09:34:37.337Z,31.50
2019-06-15T09:44:40.486Z,32.40
2019-06-15T09:54:42.544Z,34.10
2019-06-15T10:04:43.851Z,34.10
2019-06-15T10:14:45.152Z,37.10
2019-06-15T10:24:46.476Z,37.90
2019-06-15T10:34:48.533Z,34.70
2019-06-15T10:44:49.834Z,34.60
2019-06-15T10:54:59.787Z,33.90
2019-06-15T11:05:01.852Z,32.10
2019-06-15T11:45:26.246Z,31.70
2019-06-15T11:55:38.998Z,31.40
2019-06-15T12:05:30.557Z,32.90
2019-06-15T12:15:31.852Z,32.80
2019-06-15T12:25:33.142Z,31.90
2019-06-15T12:35:34.442Z,31.40
2019-06-15T12:45:35.846Z,30.80
2019-06-15T13:05:48.395Z,29.40
2019-06-15T13:15:50.434Z,30.70
2019-06-15T13:25:51.877Z,30.60
2019-06-15T13:35:53.043Z,30.40
2019-06-15T13:45:54.335Z,30.70
2019-06-15T13:55:55.631Z,31.00
2019-06-15T14:16:05.143Z,31.00
2019-06-15T14:26:07.204Z,30.30
2019-06-15T14:46:15.677Z,30.40
2019-06-15T14:56:17.456Z,30.20
2019-06-15T15:16:30.122Z,29.80
2019-06-15T15:26:32.158Z,29.70
2019-06-15T15:36:33.532Z,29.70
2019-06-15T15:46:35.605Z,29.40
2019-06-15T15:56:36.943Z,29.50
2019-06-15T16:06:39.019Z,29.20
2019-06-15T16:26:47.239Z,29.10
2019-06-15T16:36:48.530Z,28.90
2019-06-15T16:46:49.862Z,28.70
2019-06-15T17:07:03.727Z,28.80
2019-06-15T17:17:05.505Z,28.70
2019-06-15T17:27:06.303Z,28.50
2019-06-15T17:37:07.591Z,28.20
2019-06-15T17:47:09.254Z,28.10
2019-06-15T17:57:10.606Z,27.80
2019-06-15T18:07:11.895Z,27.30
2019-06-15T18:27:21.169Z,26.10
2019-06-15T18:37:23.229Z,25.00
2019-06-15T18:47:26.574Z,24.90
2019-06-15T18:57:29.124Z,24.10
2019-06-15T19:07:30.510Z,24.10
2019-06-15T19:17:31.770Z,23.80
2019-06-15T19:27:33.214Z,23.50
2019-06-15T19:37:36.961Z,23.40
2019-06-15T19:47:37.837Z,22.90
2019-06-15T19:57:37.306Z,22.60
2019-06-15T20:07:38.597Z,22.50
2019-06-15T20:17:39.886Z,22.30
2019-06-15T20:27:41.168Z,22.10
2019-06-15T20:47:49.352Z,21.90
2019-06-15T20:57:51.393Z,21.60
2019-06-15T21:07:52.660Z,21.60
2019-06-15T21:17:56.932Z,21.20
2019-06-15T21:27:56.729Z,21.20
2019-06-15T21:37:57.368Z,21.10
2019-06-15T21:47:59.404Z,20.90
2019-06-15T21:58:00.687Z,20.90
2019-06-15T22:08:02.012Z,20.70
2019-06-15T22:18:06.789Z,20.60
2019-06-15T22:28:06.975Z,20.50
2019-06-15T22:38:07.989Z,20.20
2019-06-15T22:48:09.270Z,20.10
2019-06-15T22:58:10.562Z,20.10
2019-06-15T23:08:11.835Z,20.00
2019-06-15T23:18:13.965Z,20.00
2019-06-15T23:28:16.541Z,19.80
2019-06-15T23:38:16.581Z,19.70
2019-06-15T23:48:17.870Z,19.60
2019-06-15T23:58:19.143Z,19.40
